Time;durP1;ratioP1;P1;durP2;ratioP2;P2;SDS_P1;SDS_P2;PMS_P1;PMS_P2;Temp;Humidity;BMP_temperature;BMP_pressure;BME280_temperature;BME280_humidity;BME280_pressure;Samples;Min_cycle;Max_cycle;Signal;HPM_P1;HPM_P2
2023/04/18 00:01:15;;;;;;;54.80;27.98;;;6.80;99.90;;;;;;5038627;28;20033;-93
2023/04/18 00:03:40;;;;;;;52.28;27.20;;;6.80;99.90;;;;;;5020998;28;20048;-92
2023/04/18 00:06:06;;;;;;;54.28;27.65;;;6.80;99.90;;;;;;5020877;28;20060;-91
2023/04/18 00:08:32;;;;;;;59.20;30.17;;;6.80;99.90;;;;;;5044221;28;20072;-90
2023/04/18 00:10:58;;;;;;;57.45;26.75;;;6.80;99.90;;;;;;5024779;28;20117;-88
2023/04/18 00:13:24;;;;;;;60.08;28.15;;;6.90;99.90;;;;;;5047956;28;20052;-87
2023/04/18 00:15:53;;;;;;;60.50;28.73;;;6.80;99.90;;;;;;5050766;28;20060;-90
2023/04/18 00:18:18;;;;;;;57.85;27.00;;;6.80;99.90;;;;;;5035498;28;20538;-90
2023/04/18 00:20:45;;;;;;;64.30;28.08;;;6.80;99.90;;;;;;5037466;28;20079;-92
2023/04/18 00:23:12;;;;;;;61.53;29.17;;;6.80;99.90;;;;;;5018695;28;20033;-93
2023/04/18 00:25:39;;;;;;;64.72;30.27;;;6.80;99.90;;;;;;5038140;28;20474;-92
2023/04/18 00:28:04;;;;;;;63.08;29.85;;;6.90;99.90;;;;;;5033345;28;20022;-94
2023/04/18 00:30:30;;;;;;;61.80;27.98;;;6.90;99.90;;;;;;5033591;28;20026;-91
2023/04/18 00:32:56;;;;;;;59.30;28.50;;;6.90;99.90;;;;;;5032642;28;20061;-92
2023/04/18 00:35:22;;;;;;;59.10;26.90;;;6.90;99.90;;;;;;5021257;28;20021;-91
2023/04/18 00:37:47;;;;;;;59.72;28.10;;;6.90;99.90;;;;;;5018682;28;20046;-90
2023/04/18 00:40:13;;;;;;;69.68;31.48;;;6.90;99.90;;;;;;5016975;28;20068;-91
2023/04/18 00:42:38;;;;;;;69.95;32.50;;;6.90;99.90;;;;;;5033194;28;20034;-91
2023/04/18 00:45:04;;;;;;;68.50;32.25;;;6.90;99.90;;;;;;5016737;28;20026;-93
2023/04/18 00:47:30;;;;;;;75.70;33.38;;;6.90;99.90;;;;;;5032984;28;20469;-92
2023/04/18 00:49:56;;;;;;;73.28;31.02;;;6.90;99.90;;;;;;5017148;28;20029;-93
2023/04/18 00:52:25;;;;;;;86.03;37.40;;;6.90;99.90;;;;;;5018015;28;20026;-90
2023/04/18 00:54:51;;;;;;;75.30;34.15;;;6.90;99.90;;;;;;5035134;28;20076;-92
2023/04/18 00:57:17;;;;;;;81.72;35.55;;;6.90;99.90;;;;;;5036419;28;20848;-92
2023/04/18 00:59:45;;;;;;;88.05;37.25;;;6.90;99.90;;;;;;5023751;28;20029;-91
2023/04/18 01:02:11;;;;;;;79.40;34.90;;;6.90;99.90;;;;;;5038354;28;20061;-94
2023/04/18 01:04:37;;;;;;;89.13;35.78;;;6.90;99.90;;;;;;5016661;28;20089;-93
2023/04/18 01:07:03;;;;;;;89.38;35.30;;;6.90;99.90;;;;;;5017023;28;20572;-92
2023/04/18 01:09:29;;;;;;;87.03;35.95;;;6.90;99.90;;;;;;5034731;28;20060;-92
2023/04/18 01:11:55;;;;;;;85.30;33.97;;;6.90;99.90;;;;;;5034341;28;20025;-92
2023/04/18 01:14:20;;;;;;;77.82;33.53;;;6.90;99.90;;;;;;5034715;28;20032;-92
2023/04/18 01:16:47;;;;;;;81.00;32.13;;;7.00;99.90;;;;;;5036391;28;20080;-93
2023/04/18 01:19:14;;;;;;;80.72;35.15;;;6.90;99.90;;;;;;5038295;28;20030;-92
2023/04/18 01:21:42;;;;;;;86.47;34.45;;;6.90;99.90;;;;;;5035728;28;20044;-90
2023/04/18 01:24:13;;;;;;;83.03;35.08;;;6.90;99.90;;;;;;5017950;28;20383;-92
2023/04/18 01:26:40;;;;;;;93.95;36.80;;;6.90;99.90;;;;;;5018200;28;20054;-92
2023/04/18 01:29:07;;;;;;;91.43;34.10;;;7.00;99.90;;;;;;5034907;28;20021;-93
2023/04/18 01:31:37;;;;;;;97.70;36.92;;;7.00;99.90;;;;;;5019666;28;20505;-92
2023/04/18 01:34:03;;;;;;;90.75;35.83;;;7.00;99.90;;;;;;5034301;28;20017;-91
2023/04/18 01:36:30;;;;;;;98.10;36.83;;;7.00;99.90;;;;;;5033872;28;20048;-92
2023/04/18 01:38:56;;;;;;;95.07;36.90;;;7.10;99.90;;;;;;5032853;28;20064;-88
2023/04/18 01:41:22;;;;;;;93.35;36.17;;;7.10;99.90;;;;;;5033032;28;20030;-90
2023/04/18 01:43:48;;;;;;;91.60;34.80;;;7.10;99.90;;;;;;5033198;28;20025;-93
2023/04/18 01:46:13;;;;;;;91.13;34.05;;;7.10;99.90;;;;;;5033871;28;20114;-91
2023/04/18 01:48:39;;;;;;;78.50;31.77;;;7.10;99.90;;;;;;5034174;28;20021;-93
2023/04/18 01:51:05;;;;;;;99.38;37.25;;;7.10;99.90;;;;;;5036154;28;20029;-92
2023/04/18 01:53:31;;;;;;;104.18;37.88;;;7.10;99.90;;;;;;5037343;28;20104;-92
2023/04/18 01:55:57;;;;;;;104.53;38.15;;;7.10;99.90;;;;;;5038467;28;20025;-90
2023/04/18 01:58:24;;;;;;;101.45;36.25;;;7.10;99.90;;;;;;5044910;28;20025;-92
2023/04/18 02:00:53;;;;;;;105.68;37.55;;;7.10;99.90;;;;;;5033363;28;20033;-93
2023/04/18 02:03:20;;;;;;;110.80;37.83;;;7.20;99.90;;;;;;5040058;28;20060;-92
2023/04/18 02:05:46;;;;;;;100.65;34.63;;;7.20;99.90;;;;;;5021074;28;20499;-92
2023/04/18 02:08:12;;;;;;;103.78;37.05;;;7.20;99.90;;;;;;5037713;28;20022;-90
2023/04/18 02:10:38;;;;;;;100.30;37.03;;;7.20;99.90;;;;;;5017742;28;20022;-91
2023/04/18 02:13:05;;;;;;;95.05;35.55;;;7.20;99.90;;;;;;5016598;28;20044;-92
2023/04/18 02:15:31;;;;;;;106.80;38.38;;;7.20;99.90;;;;;;5015241;28;20022;-92
2023/04/18 02:17:58;;;;;;;97.57;37.63;;;7.30;99.90;;;;;;5016995;28;20085;-93
2023/04/18 02:20:25;;;;;;;94.85;33.80;;;7.30;99.90;;;;;;5017606;28;20022;-92
2023/04/18 02:22:51;;;;;;;105.80;35.72;;;7.30;99.90;;;;;;5032355;28;20050;-93
2023/04/18 02:25:17;;;;;;;97.85;33.75;;;7.20;99.90;;;;;;5031309;28;20453;-93
2023/04/18 02:27:43;;;;;;;96.25;35.15;;;7.20;99.90;;;;;;5013888;28;20109;-92
2023/04/18 02:30:09;;;;;;;97.40;34.40;;;7.20;99.90;;;;;;5012183;28;20029;-93
2023/04/18 02:32:35;;;;;;;99.50;35.25;;;7.20;99.90;;;;;;5012292;28;20028;-91
2023/04/18 02:35:01;;;;;;;84.03;32.35;;;7.20;99.90;;;;;;5028493;28;20034;-93
2023/04/18 02:37:26;;;;;;;85.15;31.73;;;7.20;99.90;;;;;;5012807;28;20250;-93
2023/04/18 02:39:52;;;;;;;83.57;29.70;;;7.20;99.90;;;;;;5012693;28;20030;-90
2023/04/18 02:42:18;;;;;;;88.47;32.95;;;7.20;99.90;;;;;;5014954;28;20170;-92
2023/04/18 02:44:43;;;;;;;84.78;29.80;;;7.20;99.90;;;;;;5014774;28;20026;-90
2023/04/18 02:47:09;;;;;;;82.97;32.05;;;7.20;99.90;;;;;;5028134;28;20034;-93
2023/04/18 02:49:35;;;;;;;83.95;32.03;;;7.20;99.90;;;;;;5028189;28;20026;-93
2023/04/18 02:52:00;;;;;;;77.88;30.13;;;7.10;99.90;;;;;;5027550;28;20443;-92
2023/04/18 02:54:26;;;;;;;71.65;27.23;;;7.20;99.90;;;;;;5012399;28;20069;-91
2023/04/18 02:56:53;;;;;;;73.97;27.70;;;7.20;99.90;;;;;;5011592;28;20053;-92
2023/04/18 02:59:18;;;;;;;68.35;26.55;;;7.20;99.90;;;;;;5016790;28;20026;-92
2023/04/18 03:01:44;;;;;;;66.40;25.52;;;7.20;99.90;;;;;;5034086;28;20038;-91
2023/04/18 03:04:10;;;;;;;64.18;24.80;;;7.10;99.90;;;;;;5029805;28;20451;-93
2023/04/18 03:06:35;;;;;;;51.60;21.25;;;7.10;99.90;;;;;;5014995;28;20061;-91
2023/04/18 03:09:02;;;;;;;63.42;25.33;;;7.10;99.90;;;;;;5014670;28;20196;-92
2023/04/18 03:11:28;;;;;;;64.47;23.65;;;7.10;99.90;;;;;;5015298;28;20029;-93
2023/04/18 03:13:54;;;;;;;63.95;25.75;;;7.00;99.90;;;;;;5015351;28;20030;-94
2023/04/18 03:16:20;;;;;;;63.20;23.50;;;7.00;99.90;;;;;;5012328;28;20030;-92
2023/04/18 03:18:45;;;;;;;66.05;25.08;;;7.00;99.90;;;;;;5012796;28;20483;-92
2023/04/18 03:21:11;;;;;;;63.95;23.92;;;7.00;99.90;;;;;;5013182;28;20037;-91
2023/04/18 03:23:37;;;;;;;64.47;23.80;;;7.00;99.90;;;;;;5029664;28;20127;-90
2023/04/18 03:26:05;;;;;;;54.42;22.55;;;7.00;99.90;;;;;;5031765;28;20048;-91
2023/04/18 03:28:30;;;;;;;61.50;23.85;;;7.00;99.90;;;;;;5028227;28;20072;-93
2023/04/18 03:30:56;;;;;;;59.55;22.30;;;7.00;99.90;;;;;;5012803;28;20487;-93
2023/04/18 03:33:22;;;;;;;50.45;20.88;;;7.00;99.90;;;;;;5012518;28;20109;-92
2023/04/18 03:35:48;;;;;;;50.78;20.25;;;7.10;99.90;;;;;;5011058;28;20069;-92
2023/04/18 03:38:14;;;;;;;53.35;21.63;;;7.00;99.90;;;;;;5013217;28;20443;-91
2023/04/18 03:40:41;;;;;;;43.47;20.23;;;7.00;99.90;;;;;;5015185;28;20029;-92
2023/04/18 03:43:06;;;;;;;53.58;21.13;;;7.00;99.90;;;;;;5014606;28;20026;-93
2023/04/18 03:45:32;;;;;;;44.60;19.42;;;7.00;99.90;;;;;;5012243;28;20053;-91
2023/04/18 03:47:58;;;;;;;51.40;20.73;;;7.10;99.90;;;;;;5011390;28;20152;-93
2023/04/18 03:50:24;;;;;;;53.55;22.45;;;7.10;99.90;;;;;;5027765;28;20032;-93
2023/04/18 03:52:51;;;;;;;43.90;18.40;;;7.10;99.90;;;;;;5012577;28;20018;-92
2023/04/18 03:55:18;;;;;;;45.30;20.05;;;7.10;99.90;;;;;;5027804;28;20034;-91
2023/04/18 03:57:44;;;;;;;38.88;18.73;;;7.20;99.90;;;;;;5027342;28;20548;-92
2023/04/18 04:00:11;;;;;;;49.00;19.75;;;7.10;99.90;;;;;;5012218;28;20133;-90
2023/04/18 04:02:37;;;;;;;45.80;20.17;;;7.10;99.90;;;;;;5014628;28;20049;-93
2023/04/18 04:05:03;;;;;;;48.58;20.08;;;7.20;99.90;;;;;;5031517;28;20080;-93
2023/04/18 04:07:30;;;;;;;43.83;17.73;;;7.20;99.90;;;;;;5034237;28;20025;-93
2023/04/18 04:09:59;;;;;;;40.90;18.10;;;7.20;99.90;;;;;;5034488;28;20022;-92
2023/04/18 04:12:25;;;;;;;43.92;17.58;;;7.20;99.90;;;;;;5018257;28;20439;-92
2023/04/18 04:14:51;;;;;;;41.25;17.95;;;7.20;99.90;;;;;;5036100;28;20029;-91
2023/04/18 04:17:17;;;;;;;44.28;18.40;;;7.20;99.90;;;;;;5036071;28;20035;-91
2023/04/18 04:19:42;;;;;;;43.13;17.98;;;7.20;99.90;;;;;;5050202;28;20026;-89
2023/04/18 04:22:08;;;;;;;43.20;18.65;;;7.10;99.90;;;;;;5023972;28;20518;-94
2023/04/18 04:24:37;;;;;;;44.70;19.20;;;7.10;99.90;;;;;;5039245;28;20171;-92
2023/04/18 04:27:04;;;;;;;47.38;19.98;;;7.10;99.90;;;;;;5021782;28;20524;-90
2023/04/18 04:29:30;;;;;;;43.25;18.92;;;7.00;99.90;;;;;;5039286;28;20026;-92
2023/04/18 04:31:56;;;;;;;45.33;17.88;;;7.00;99.90;;;;;;5040139;28;20025;-91
2023/04/18 04:34:21;;;;;;;44.75;19.15;;;7.00;99.90;;;;;;5021948;28;20040;-93
2023/04/18 04:36:47;;;;;;;41.53;19.10;;;7.00;99.90;;;;;;5042813;28;20025;-93
2023/04/18 04:39:14;;;;;;;47.67;20.23;;;7.00;99.90;;;;;;5043459;28;20063;-92
2023/04/18 04:41:39;;;;;;;45.22;19.48;;;7.00;99.90;;;;;;5044455;28;20520;-92
2023/04/18 04:44:06;;;;;;;51.75;20.73;;;7.00;99.90;;;;;;5049102;28;20033;-90
2023/04/18 04:46:32;;;;;;;46.22;20.48;;;7.00;99.90;;;;;;5043591;28;20029;-92
2023/04/18 04:48:59;;;;;;;50.55;19.95;;;7.00;99.90;;;;;;5051624;28;20028;-86
2023/04/18 04:51:26;;;;;;;45.78;19.85;;;7.00;99.90;;;;;;5050540;28;20021;-87
2023/04/18 04:53:52;;;;;;;48.35;20.98;;;7.00;99.90;;;;;;5032409;28;20486;-92
2023/04/18 04:56:18;;;;;;;45.47;20.13;;;7.00;99.90;;;;;;5046072;28;20061;-93
2023/04/18 04:58:44;;;;;;;47.85;19.90;;;7.00;99.90;;;;;;5043927;28;20026;-94
2023/04/18 05:01:11;;;;;;;44.58;20.73;;;7.00;99.90;;;;;;5042001;28;20107;-93
2023/04/18 05:03:36;;;;;;;48.88;20.30;;;6.90;99.90;;;;;;5041289;28;20055;-92
2023/04/18 05:06:02;;;;;;;42.85;19.17;;;6.90;99.90;;;;;;5023019;28;20562;-93
2023/04/18 05:08:28;;;;;;;49.65;20.27;;;6.90;99.90;;;;;;5037194;28;20026;-93
2023/04/18 05:10:54;;;;;;;49.15;20.25;;;6.90;99.90;;;;;;5019404;28;20033;-93
2023/04/18 05:13:20;;;;;;;49.22;21.23;;;6.90;99.90;;;;;;5037886;28;20017;-93
2023/04/18 05:15:45;;;;;;;42.80;19.83;;;6.90;99.90;;;;;;5036979;28;20074;-92
2023/04/18 05:18:13;;;;;;;44.38;20.02;;;6.90;99.90;;;;;;5034450;28;20053;-92
2023/04/18 05:20:39;;;;;;;43.08;20.42;;;6.90;99.90;;;;;;5034968;28;20037;-94
2023/04/18 05:23:04;;;;;;;39.05;18.00;;;6.80;99.90;;;;;;5035851;28;20056;-93
2023/04/18 05:25:30;;;;;;;45.20;19.95;;;6.80;99.90;;;;;;5037962;28;20375;-92
2023/04/18 05:27:56;;;;;;;42.63;18.83;;;6.90;99.90;;;;;;5019966;28;20029;-92
2023/04/18 05:30:22;;;;;;;41.92;19.25;;;6.90;99.90;;;;;;5037805;28;20017;-92
2023/04/18 05:32:47;;;;;;;48.80;21.00;;;6.80;99.90;;;;;;5044718;28;20074;-92
2023/04/18 05:35:13;;;;;;;44.63;18.30;;;6.90;99.90;;;;;;5035687;28;20051;-92
2023/04/18 05:37:39;;;;;;;41.88;19.75;;;6.80;99.90;;;;;;5017448;28;20030;-93
2023/04/18 05:40:05;;;;;;;41.83;20.60;;;6.90;99.90;;;;;;5034781;28;20033;-93
2023/04/18 05:42:31;;;;;;;43.70;19.27;;;6.90;99.90;;;;;;5035975;28;20444;-93
2023/04/18 05:44:57;;;;;;;46.67;21.13;;;6.90;99.90;;;;;;5035512;28;20033;-93
2023/04/18 05:47:27;;;;;;;51.28;22.65;;;6.90;99.90;;;;;;5018006;28;20472;-92
2023/04/18 05:49:53;;;;;;;45.83;21.57;;;6.90;99.90;;;;;;5033604;28;20021;-93
2023/04/18 05:52:19;;;;;;;41.08;18.58;;;6.90;99.90;;;;;;5036706;28;20424;-92
2023/04/18 05:54:44;;;;;;;43.78;19.70;;;6.90;99.90;;;;;;5035749;28;20532;-92
2023/04/18 05:57:10;;;;;;;43.63;20.90;;;6.90;99.90;;;;;;5036116;28;20068;-88
2023/04/18 05:59:36;;;;;;;47.08;20.88;;;6.90;99.90;;;;;;5040040;28;20021;-90
2023/04/18 06:02:01;;;;;;;46.65;20.70;;;6.90;99.90;;;;;;5028061;28;20049;-89
2023/04/18 06:04:27;;;;;;;49.10;21.27;;;7.00;99.90;;;;;;5028980;28;20077;-91
2023/04/18 06:06:53;;;;;;;48.33;21.65;;;7.00;99.90;;;;;;5045510;28;20037;-91
2023/04/18 06:09:19;;;;;;;43.75;20.38;;;7.00;99.90;;;;;;5041583;28;20021;-93
2023/04/18 06:11:44;;;;;;;46.55;21.15;;;7.00;99.90;;;;;;5038345;28;20017;-91
2023/04/18 06:14:10;;;;;;;43.38;20.05;;;7.00;99.90;;;;;;5043727;28;20039;-91
2023/04/18 06:16:36;;;;;;;42.53;20.55;;;7.10;99.90;;;;;;5041995;28;20063;-91
2023/04/18 06:19:02;;;;;;;44.88;21.13;;;7.10;99.90;;;;;;5042276;28;20029;-92
2023/04/18 06:21:28;;;;;;;40.15;19.35;;;7.10;99.90;;;;;;5019251;28;20041;-90
2023/04/18 06:23:53;;;;;;;45.85;20.55;;;7.10;99.90;;;;;;5018278;28;20025;-91
2023/04/18 06:26:19;;;;;;;42.75;20.88;;;7.10;99.90;;;;;;5035392;28;20663;-92
2023/04/18 06:28:45;;;;;;;43.75;21.27;;;7.10;99.90;;;;;;5033565;28;20029;-91
2023/04/18 06:31:11;;;;;;;44.65;22.27;;;7.10;99.90;;;;;;5014306;28;20022;-89
2023/04/18 06:33:36;;;;;;;46.50;21.45;;;7.10;99.90;;;;;;5034409;28;20067;-91
2023/04/18 06:36:04;;;;;;;53.75;22.45;;;7.10;99.90;;;;;;5017088;28;20083;-92
2023/04/18 06:38:29;;;;;;;51.75;23.15;;;7.10;99.90;;;;;;5037876;28;20589;-90
2023/04/18 06:40:55;;;;;;;48.03;22.58;;;7.10;99.90;;;;;;5037768;28;20041;-91
2023/04/18 06:43:21;;;;;;;50.47;22.27;;;7.10;99.90;;;;;;5033854;28;20029;-92
2023/04/18 06:45:46;;;;;;;46.75;21.92;;;7.10;99.90;;;;;;5033159;28;20159;-92
2023/04/18 06:48:12;;;;;;;47.20;21.58;;;7.20;99.90;;;;;;5034123;28;20487;-89
2023/04/18 06:50:38;;;;;;;48.63;22.83;;;7.20;99.90;;;;;;5033191;28;20026;-90
2023/04/18 06:53:04;;;;;;;52.30;23.77;;;7.30;99.90;;;;;;5033744;28;20029;-91
2023/04/18 06:55:30;;;;;;;49.88;22.42;;;7.30;99.90;;;;;;5034203;28;20536;-92
2023/04/18 06:57:55;;;;;;;55.13;22.60;;;7.40;99.90;;;;;;5033218;28;20052;-92
2023/04/18 07:00:21;;;;;;;50.50;20.88;;;7.40;99.90;;;;;;5015959;28;20030;-92
2023/04/18 07:02:47;;;;;;;50.38;22.80;;;7.50;99.90;;;;;;5036232;28;20045;-91
2023/04/18 07:05:13;;;;;;;48.90;22.90;;;7.50;99.90;;;;;;5032840;28;20024;-91
2023/04/18 07:07:38;;;;;;;43.38;21.15;;;7.50;99.90;;;;;;5013360;28;20026;-91
2023/04/18 07:10:05;;;;;;;46.45;21.27;;;7.60;99.90;;;;;;5012763;28;20026;-90
2023/04/18 07:12:31;;;;;;;46.40;22.55;;;7.60;99.90;;;;;;5013367;28;20480;-93
2023/04/18 07:14:57;;;;;;;48.70;21.80;;;7.70;99.90;;;;;;4996076;28;20022;-91
2023/04/18 07:17:22;;;;;;;46.38;22.17;;;7.70;99.90;;;;;;5025575;28;20025;-91
2023/04/18 07:19:48;;;;;;;42.78;21.00;;;7.80;99.90;;;;;;5033634;28;20079;-91
2023/04/18 07:22:13;;;;;;;45.35;22.98;;;7.90;99.90;;;;;;5032788;28;20107;-88
2023/04/18 07:24:39;;;;;;;43.47;20.55;;;7.90;99.90;;;;;;5032984;28;20022;-91
2023/04/18 07:27:05;;;;;;;45.33;23.33;;;7.90;99.90;;;;;;5032659;28;20479;-92
2023/04/18 07:29:31;;;;;;;44.63;20.90;;;7.90;99.90;;;;;;5033558;28;20044;-91
2023/04/18 07:31:57;;;;;;;47.63;21.70;;;8.00;99.90;;;;;;5033201;28;20022;-91
2023/04/18 07:34:25;;;;;;;40.92;20.70;;;8.10;99.90;;;;;;5032533;28;20028;-91
2023/04/18 07:36:52;;;;;;;40.88;19.85;;;8.20;99.90;;;;;;5014897;28;20116;-92
2023/04/18 07:39:17;;;;;;;42.75;21.33;;;8.20;99.90;;;;;;5032331;28;20030;-93
2023/04/18 07:41:43;;;;;;;44.38;21.45;;;8.30;99.90;;;;;;5034503;28;20088;-93
2023/04/18 07:44:08;;;;;;;44.15;20.80;;;8.40;99.90;;;;;;5036932;28;20018;-91
2023/04/18 07:46:34;;;;;;;39.72;21.38;;;8.40;99.90;;;;;;5035929;28;20506;-92
2023/04/18 07:49:01;;;;;;;42.60;20.90;;;8.50;99.90;;;;;;5031237;28;20044;-89
2023/04/18 07:51:30;;;;;;;37.97;19.13;;;8.60;99.90;;;;;;5033914;28;20029;-91
2023/04/18 07:53:57;;;;;;;36.88;20.10;;;8.70;99.90;;;;;;5035694;28;20079;-94
2023/04/18 07:56:22;;;;;;;35.85;19.05;;;8.70;99.90;;;;;;5034444;28;20116;-91
2023/04/18 07:58:48;;;;;;;37.67;20.38;;;8.70;99.90;;;;;;5037507;28;20053;-91
2023/04/18 08:01:17;;;;;;;40.65;21.45;;;8.70;99.90;;;;;;5036163;28;20041;-89
2023/04/18 08:03:43;;;;;;;37.53;20.77;;;8.70;99.90;;;;;;5018935;28;20037;-91
2023/04/18 08:06:08;;;;;;;35.35;19.83;;;8.80;99.90;;;;;;5025346;28;20057;-93
2023/04/18 08:08:34;;;;;;;36.53;18.23;;;8.80;99.90;;;;;;5044048;28;20463;-92
2023/04/18 08:11:00;;;;;;;38.47;20.15;;;8.90;99.90;;;;;;5018580;28;20079;-93
2023/04/18 08:13:26;;;;;;;37.50;19.52;;;9.00;99.90;;;;;;5034864;28;20032;-92
2023/04/18 08:15:52;;;;;;;32.75;18.38;;;9.10;99.90;;;;;;5020798;28;20029;-91
2023/04/18 08:18:18;;;;;;;36.00;19.60;;;9.20;99.90;;;;;;5035690;28;20399;-92
2023/04/18 08:20:44;;;;;;;36.88;20.02;;;9.20;99.90;;;;;;5036210;28;20040;-91
2023/04/18 08:23:10;;;;;;;33.42;18.17;;;9.20;99.90;;;;;;5035645;28;20105;-92
2023/04/18 08:25:35;;;;;;;38.42;19.05;;;9.30;99.90;;;;;;5035446;28;20108;-92
2023/04/18 08:28:01;;;;;;;36.65;20.38;;;9.40;99.90;;;;;;5017999;28;20025;-91
2023/04/18 08:30:27;;;;;;;38.03;19.63;;;9.40;99.90;;;;;;5038418;28;20387;-93
2023/04/18 08:32:52;;;;;;;36.25;18.55;;;9.50;99.90;;;;;;5034049;28;20049;-91
2023/04/18 08:35:18;;;;;;;37.53;18.35;;;9.50;99.90;;;;;;5031345;28;20108;-92
2023/04/18 08:37:44;;;;;;;34.35;17.88;;;9.60;99.90;;;;;;5030233;28;20038;-93
2023/04/18 08:40:10;;;;;;;37.45;18.35;;;9.60;99.90;;;;;;5031088;28;20029;-94
2023/04/18 08:42:38;;;;;;;41.47;19.38;;;9.70;99.90;;;;;;5034866;28;20044;-93
2023/04/18 08:45:05;;;;;;;34.42;17.92;;;9.80;99.90;;;;;;5033083;28;20033;-90
2023/04/18 08:47:33;;;;;;;33.25;18.25;;;9.90;99.90;;;;;;5034424;28;20127;-90
2023/04/18 08:50:00;;;;;;;33.22;18.08;;;10.00;99.90;;;;;;5018498;28;20167;-93
2023/04/18 08:52:28;;;;;;;35.85;17.85;;;10.00;99.90;;;;;;5033693;28;20089;-93
2023/04/18 08:54:56;;;;;;;32.85;18.30;;;10.10;99.90;;;;;;5019524;28;20116;-94
2023/04/18 08:57:25;;;;;;;35.53;18.80;;;10.20;99.90;;;;;;5023811;28;20021;-93
2023/04/18 08:59:52;;;;;;;39.13;19.83;;;10.30;99.90;;;;;;5036854;28;20025;-95
2023/04/18 09:02:21;;;;;;;36.95;18.27;;;10.40;99.90;;;;;;5043493;28;20413;-91
2023/04/18 09:04:51;;;;;;;33.47;17.48;;;10.60;99.90;;;;;;5024288;28;20037;-94
2023/04/18 09:07:18;;;;;;;29.15;16.60;;;10.70;99.90;;;;;;5035342;28;20030;-94
2023/04/18 09:09:50;;;;;;;30.48;17.02;;;10.80;99.90;;;;;;5035100;28;20108;-93
2023/04/18 09:12:17;;;;;;;35.38;17.38;;;11.00;99.90;;;;;;5035278;28;20109;-93
2023/04/18 09:14:49;;;;;;;30.50;16.30;;;11.10;99.90;;;;;;5039522;28;20108;-95
2023/04/18 09:17:29;;;;;;;33.20;16.70;;;11.20;99.90;;;;;;5035490;28;20109;-95
2023/04/18 09:19:55;;;;;;;28.58;16.83;;;11.40;99.90;;;;;;5036348;28;20032;-94
2023/04/18 09:22:21;;;;;;;31.45;16.75;;;11.50;99.90;;;;;;5019238;28;20548;-95
2023/04/18 09:24:56;;;;;;;32.40;16.63;;;11.60;99.90;;;;;;5019302;28;20029;-94
2023/04/18 09:27:23;;;;;;;27.75;15.90;;;11.80;99.90;;;;;;5020195;28;20057;-94
2023/04/18 09:29:53;;;;;;;28.15;15.10;;;12.00;99.90;;;;;;5039334;28;20426;-94
2023/04/18 09:32:25;;;;;;;27.00;14.63;;;12.10;99.90;;;;;;5018462;28;20079;-95
2023/04/18 09:34:56;;;;;;;23.88;14.75;;;12.20;99.90;;;;;;5037064;28;20037;-95
2023/04/18 09:37:23;;;;;;;27.13;14.00;;;12.30;99.90;;;;;;5021272;28;20014;-95
2023/04/18 09:39:51;;;;;;;27.30;14.90;;;12.40;99.90;;;;;;5018375;28;20083;-95
2023/04/18 09:42:18;;;;;;;28.33;15.02;;;12.50;99.90;;;;;;5037775;28;20490;-95
2023/04/18 09:45:16;;;;;;;30.98;15.27;;;12.70;99.90;;;;;;5038639;28;20017;-95
2023/04/18 09:47:41;;;;;;;27.83;15.25;;;12.80;99.90;;;;;;5004223;28;20124;-95
2023/04/18 09:50:10;;;;;;;26.20;14.23;;;12.90;99.90;;;;;;5025226;28;20026;-93
2023/04/18 09:52:38;;;;;;;25.20;13.70;;;13.00;99.90;;;;;;5045098;28;20025;-93
2023/04/18 09:55:08;;;;;;;24.83;13.18;;;13.10;99.90;;;;;;5044163;28;20024;-94
2023/04/18 09:57:35;;;;;;;23.15;13.18;;;13.20;99.90;;;;;;5042411;28;20036;-95
2023/04/18 10:00:09;;;;;;;24.70;13.10;;;13.50;99.90;;;;;;5042521;28;20064;-95
2023/04/18 10:03:03;;;;;;;22.80;13.65;;;13.60;99.90;;;;;;5023044;28;20045;-93
2023/04/18 10:05:34;;;;;;;23.98;13.52;;;13.80;99.90;;;;;;5034206;28;20037;-95
2023/04/18 10:08:00;;;;;;;24.15;12.55;;;13.80;99.90;;;;;;5023097;28;20025;-93
2023/04/18 10:10:26;;;;;;;26.45;12.73;;;14.00;99.90;;;;;;5024010;28;20017;-92
2023/04/18 10:12:54;;;;;;;22.02;11.50;;;14.00;99.90;;;;;;5039227;28;20049;-95
2023/04/18 10:15:22;;;;;;;20.70;12.85;;;14.10;99.50;;;;;;5020884;28;20026;-92
2023/04/18 10:17:55;;;;;;;22.48;13.32;;;14.20;98.90;;;;;;5037156;28;20037;-95
2023/04/18 10:20:27;;;;;;;26.10;12.52;;;14.20;98.40;;;;;;5036939;28;20064;-93
2023/04/18 10:22:53;;;;;;;17.58;11.45;;;14.50;97.90;;;;;;5031833;28;20045;-94
2023/04/18 10:25:37;;;;;;;20.35;11.70;;;14.50;96.50;;;;;;5018012;28;20026;-94
2023/04/18 10:28:07;;;;;;;27.30;12.68;;;14.60;95.40;;;;;;5020308;28;20026;-94
2023/04/18 10:30:49;;;;;;;24.30;11.68;;;14.80;95.00;;;;;;5034885;28;20108;-96
2023/04/18 10:33:40;;;;;;;18.23;11.02;;;14.90;94.30;;;;;;5038776;28;20348;-95
2023/04/18 10:36:11;;;;;;;24.27;12.07;;;15.00;92.60;;;;;;5029872;28;20048;-93
2023/04/18 10:38:44;;;;;;;20.88;11.23;;;15.00;92.00;;;;;;5022265;28;20021;-93
2023/04/18 10:41:17;;;;;;;18.10;10.65;;;15.10;91.60;;;;;;5022444;28;20033;-95
2023/04/18 10:44:16;;;;;;;18.23;10.70;;;15.20;90.80;;;;;;5037761;28;20115;-95
2023/04/18 10:46:51;;;;;;;16.50;9.77;;;15.30;90.40;;;;;;5041849;28;20045;-94
2023/04/18 10:49:25;;;;;;;16.52;9.68;;;15.40;90.00;;;;;;5048794;28;20052;-94
2023/04/18 10:51:59;;;;;;;19.55;9.95;;;15.50;88.30;;;;;;5028475;28;20025;-93
2023/04/18 10:54:26;;;;;;;18.17;9.45;;;15.50;85.30;;;;;;5044909;28;20466;-94
2023/04/18 10:57:01;;;;;;;18.73;9.30;;;15.60;84.70;;;;;;5043951;28;20093;-94
2023/04/18 10:59:28;;;;;;;14.20;8.57;;;15.60;83.30;;;;;;5048330;28;20033;-95
2023/04/18 11:02:15;;;;;;;17.00;8.85;;;15.70;81.20;;;;;;5040826;28;20067;-95
2023/04/18 11:04:40;;;;;;;15.23;9.45;;;15.70;80.80;;;;;;5038990;28;20048;-95
2023/04/18 11:07:06;;;;;;;15.80;9.27;;;15.90;80.30;;;;;;5048852;28;20101;-95
2023/04/18 11:09:31;;;;;;;14.68;8.75;;;16.20;79.60;;;;;;5039857;28;20021;-92
2023/04/18 11:12:06;;;;;;;17.55;8.68;;;16.40;79.10;;;;;;5032773;28;20026;-92
2023/04/18 11:14:39;;;;;;;16.45;8.82;;;16.50;77.60;;;;;;5034471;28;20041;-95
2023/04/18 11:17:26;;;;;;;12.63;8.32;;;16.50;76.80;;;;;;5036370;28;20033;-95
2023/04/18 11:20:07;;;;;;;14.98;8.85;;;16.60;76.20;;;;;;5042208;28;20103;-94
2023/04/18 11:22:46;;;;;;;13.57;7.53;;;16.70;75.90;;;;;;5037559;28;20061;-95
2023/04/18 11:25:13;;;;;;;15.30;8.00;;;16.80;74.60;;;;;;5037157;28;20016;-89
2023/04/18 11:27:43;;;;;;;15.65;8.75;;;16.80;73.90;;;;;;5038248;28;20025;-92
2023/04/18 11:30:10;;;;;;;13.52;8.18;;;16.80;73.60;;;;;;5039025;28;20105;-92
2023/04/18 11:32:36;;;;;;;16.10;9.13;;;16.60;72.80;;;;;;5017706;28;20029;-95
2023/04/18 11:35:02;;;;;;;18.42;9.35;;;16.60;72.90;;;;;;5017364;28;20021;-93
2023/04/18 11:37:28;;;;;;;12.98;8.02;;;16.70;72.80;;;;;;5035027;28;20045;-92
2023/04/18 11:39:54;;;;;;;14.82;8.57;;;16.90;72.90;;;;;;5019418;28;20021;-91
2023/04/18 11:42:24;;;;;;;18.10;8.63;;;17.00;72.80;;;;;;5019347;28;20037;-92
2023/04/18 11:44:50;;;;;;;16.45;9.70;;;17.00;72.10;;;;;;5036880;28;20063;-92
2023/04/18 11:47:26;;;;;;;15.32;8.85;;;16.90;72.00;;;;;;5019189;28;20114;-90
2023/04/18 11:49:55;;;;;;;16.98;8.88;;;16.80;72.20;;;;;;5023628;28;20033;-90
2023/04/18 11:52:21;;;;;;;17.65;9.30;;;16.80;72.50;;;;;;5019153;28;20028;-90
2023/04/18 11:54:47;;;;;;;14.10;8.32;;;16.70;71.80;;;;;;5039161;28;20033;-91
2023/04/18 11:57:25;;;;;;;11.25;7.82;;;16.60;71.80;;;;;;5037829;28;20091;-93
2023/04/18 12:00:11;;;;;;;18.83;8.50;;;16.50;72.40;;;;;;5038173;28;20043;-94
2023/04/18 12:02:42;;;;;;;15.07;8.25;;;16.50;72.80;;;;;;5036885;28;20113;-92
2023/04/18 12:05:08;;;;;;;13.80;8.50;;;16.30;72.70;;;;;;5036775;28;20029;-93
2023/04/18 12:07:35;;;;;;;13.15;7.43;;;16.30;73.40;;;;;;5036061;28;20025;-93
2023/04/18 12:10:02;;;;;;;14.15;7.30;;;16.60;73.20;;;;;;5017979;28;20450;-92
2023/04/18 12:12:28;;;;;;;12.65;6.93;;;16.70;71.00;;;;;;5034937;28;20449;-94
2023/04/18 12:15:07;;;;;;;12.07;6.70;;;16.90;69.70;;;;;;5033384;28;20021;-92
2023/04/18 12:17:35;;;;;;;15.60;7.43;;;17.10;69.40;;;;;;5035176;28;20033;-94
2023/04/18 12:20:03;;;;;;;12.32;6.00;;;17.20;68.40;;;;;;5033699;28;20025;-91
2023/04/18 12:22:48;;;;;;;9.90;6.60;;;17.20;67.20;;;;;;5037347;28;20075;-93
2023/04/18 12:25:27;;;;;;;10.35;5.85;;;17.10;67.30;;;;;;5039852;28;20021;-93
2023/04/18 12:28:13;;;;;;;13.40;6.78;;;17.00;66.90;;;;;;5035218;28;20036;-92
2023/04/18 12:30:39;;;;;;;10.00;6.00;;;16.70;66.10;;;;;;5036354;28;20098;-93
2023/04/18 12:33:05;;;;;;;9.38;5.90;;;16.70;66.30;;;;;;5018530;28;20475;-93
2023/04/18 12:35:31;;;;;;;12.65;5.85;;;17.00;66.10;;;;;;5034921;28;20032;-93
2023/04/18 12:38:01;;;;;;;14.48;5.88;;;17.30;65.00;;;;;;5035468;28;20087;-94